sensor_id;sensor_type;location;lat;lon;timestamp;P1;durP1;ratioP1;P2;durP2;ratioP2
317;SDS011;146;53.448;10.228;2022-12-18T00:00:45;19.77;;;16.65;;
317;SDS011;146;53.448;10.228;2022-12-18T00:03:12;18.33;;;16.00;;
317;SDS011;146;53.448;10.228;2022-12-18T00:05:45;19.92;;;16.92;;
317;SDS011;146;53.448;10.228;2022-12-18T00:08:12;20.92;;;17.48;;
317;SDS011;146;53.448;10.228;2022-12-18T00:10:39;19.25;;;15.65;;
317;SDS011;146;53.448;10.228;2022-12-18T00:13:06;20.45;;;16.67;;
317;SDS011;146;53.448;10.228;2022-12-18T00:15:33;22.73;;;16.40;;
317;SDS011;146;53.448;10.228;2022-12-18T00:18:01;20.33;;;15.68;;
317;SDS011;146;53.448;10.228;2022-12-18T00:20:28;18.40;;;16.45;;
317;SDS011;146;53.448;10.228;2022-12-18T00:22:55;17.00;;;15.00;;
317;SDS011;146;53.448;10.228;2022-12-18T00:25:22;16.58;;;14.75;;
317;SDS011;146;53.448;10.228;2022-12-18T00:27:49;17.80;;;14.82;;
317;SDS011;146;53.448;10.228;2022-12-18T00:30:15;19.60;;;16.00;;
317;SDS011;146;53.448;10.228;2022-12-18T00:32:42;18.90;;;15.32;;
317;SDS011;146;53.448;10.228;2022-12-18T00:35:10;18.90;;;14.52;;
317;SDS011;146;53.448;10.228;2022-12-18T00:37:37;15.48;;;13.63;;
317;SDS011;146;53.448;10.228;2022-12-18T00:40:04;17.10;;;14.85;;
317;SDS011;146;53.448;10.228;2022-12-18T00:42:32;14.98;;;13.25;;
317;SDS011;146;53.448;10.228;2022-12-18T00:45:16;15.13;;;12.90;;
317;SDS011;146;53.448;10.228;2022-12-18T00:47:43;18.85;;;14.07;;
317;SDS011;146;53.448;10.228;2022-12-18T00:50:11;16.42;;;13.55;;
317;SDS011;146;53.448;10.228;2022-12-18T00:52:39;15.77;;;13.18;;
317;SDS011;146;53.448;10.228;2022-12-18T00:55:06;14.57;;;12.15;;
317;SDS011;146;53.448;10.228;2022-12-18T00:57:33;17.65;;;13.15;;
317;SDS011;146;53.448;10.228;2022-12-18T01:00:00;16.40;;;13.05;;
317;SDS011;146;53.448;10.228;2022-12-18T01:02:27;16.40;;;13.48;;
317;SDS011;146;53.448;10.228;2022-12-18T01:04:54;19.50;;;14.02;;
317;SDS011;146;53.448;10.228;2022-12-18T01:07:22;13.80;;;11.95;;
317;SDS011;146;53.448;10.228;2022-12-18T01:09:49;13.70;;;12.05;;
317;SDS011;146;53.448;10.228;2022-12-18T01:12:16;14.55;;;12.52;;
317;SDS011;146;53.448;10.228;2022-12-18T01:14:42;17.58;;;12.10;;
317;SDS011;146;53.448;10.228;2022-12-18T01:17:09;12.90;;;11.57;;
317;SDS011;146;53.448;10.228;2022-12-18T01:19:36;13.75;;;11.90;;
317;SDS011;146;53.448;10.228;2022-12-18T01:22:03;14.50;;;12.50;;
317;SDS011;146;53.448;10.228;2022-12-18T01:24:31;13.80;;;11.45;;
317;SDS011;146;53.448;10.228;2022-12-18T01:26:58;16.10;;;13.85;;
317;SDS011;146;53.448;10.228;2022-12-18T01:29:24;17.60;;;12.57;;
317;SDS011;146;53.448;10.228;2022-12-18T01:31:54;15.25;;;12.95;;
317;SDS011;146;53.448;10.228;2022-12-18T01:34:21;16.90;;;13.70;;
317;SDS011;146;53.448;10.228;2022-12-18T01:36:48;14.05;;;11.70;;
317;SDS011;146;53.448;10.228;2022-12-18T01:39:17;15.45;;;12.10;;
317;SDS011;146;53.448;10.228;2022-12-18T01:41:45;16.00;;;11.73;;
317;SDS011;146;53.448;10.228;2022-12-18T01:47:25;15.63;;;13.93;;
317;SDS011;146;53.448;10.228;2022-12-18T01:49:55;16.38;;;13.90;;
317;SDS011;146;53.448;10.228;2022-12-18T01:52:23;13.18;;;10.82;;
317;SDS011;146;53.448;10.228;2022-12-18T01:54:52;17.20;;;12.57;;
317;SDS011;146;53.448;10.228;2022-12-18T01:57:22;12.75;;;11.55;;
317;SDS011;146;53.448;10.228;2022-12-18T01:59:50;14.15;;;12.15;;
317;SDS011;146;53.448;10.228;2022-12-18T02:02:20;14.73;;;11.48;;
317;SDS011;146;53.448;10.228;2022-12-18T02:04:47;16.88;;;11.73;;
317;SDS011;146;53.448;10.228;2022-12-18T02:07:14;17.02;;;11.88;;
317;SDS011;146;53.448;10.228;2022-12-18T02:09:48;14.20;;;11.30;;
317;SDS011;146;53.448;10.228;2022-12-18T02:12:23;16.40;;;12.38;;
317;SDS011;146;53.448;10.228;2022-12-18T02:14:54;16.58;;;11.73;;
317;SDS011;146;53.448;10.228;2022-12-18T02:17:27;12.85;;;11.30;;
317;SDS011;146;53.448;10.228;2022-12-18T02:20:02;13.10;;;11.70;;
317;SDS011;146;53.448;10.228;2022-12-18T02:22:40;12.30;;;10.45;;
317;SDS011;146;53.448;10.228;2022-12-18T02:25:23;14.23;;;11.05;;
317;SDS011;146;53.448;10.228;2022-12-18T02:28:06;12.77;;;11.45;;
317;SDS011;146;53.448;10.228;2022-12-18T02:30:36;13.40;;;12.00;;
317;SDS011;146;53.448;10.228;2022-12-18T02:33:06;12.85;;;11.30;;
317;SDS011;146;53.448;10.228;2022-12-18T02:35:34;15.68;;;10.82;;
317;SDS011;146;53.448;10.228;2022-12-18T02:38:03;14.50;;;11.00;;
317;SDS011;146;53.448;10.228;2022-12-18T02:40:30;13.43;;;12.05;;
317;SDS011;146;53.448;10.228;2022-12-18T02:43:02;13.38;;;11.38;;
317;SDS011;146;53.448;10.228;2022-12-18T02:45:34;12.57;;;10.38;;
317;SDS011;146;53.448;10.228;2022-12-18T02:48:00;12.82;;;11.48;;
317;SDS011;146;53.448;10.228;2022-12-18T02:50:30;12.93;;;11.00;;
317;SDS011;146;53.448;10.228;2022-12-18T02:53:06;14.68;;;11.93;;
317;SDS011;146;53.448;10.228;2022-12-18T02:55:46;12.70;;;11.35;;
317;SDS011;146;53.448;10.228;2022-12-18T02:58:20;12.15;;;10.80;;
317;SDS011;146;53.448;10.228;2022-12-18T03:00:58;12.57;;;10.70;;
317;SDS011;146;53.448;10.228;2022-12-18T03:03:29;14.60;;;13.10;;
317;SDS011;146;53.448;10.228;2022-12-18T03:06:02;12.15;;;10.93;;
317;SDS011;146;53.448;10.228;2022-12-18T03:08:33;11.25;;;10.07;;
317;SDS011;146;53.448;10.228;2022-12-18T03:11:04;12.55;;;11.25;;
317;SDS011;146;53.448;10.228;2022-12-18T03:13:35;11.80;;;10.57;;
317;SDS011;146;53.448;10.228;2022-12-18T03:16:08;14.82;;;11.27;;
317;SDS011;146;53.448;10.228;2022-12-18T03:18:38;12.00;;;10.85;;
317;SDS011;146;53.448;10.228;2022-12-18T03:21:11;12.73;;;11.45;;
317;SDS011;146;53.448;10.228;2022-12-18T03:23:43;15.13;;;12.23;;
317;SDS011;146;53.448;10.228;2022-12-18T03:26:14;10.68;;;9.57;;
317;SDS011;146;53.448;10.228;2022-12-18T03:28:44;12.02;;;10.80;;
317;SDS011;146;53.448;10.228;2022-12-18T03:31:16;10.13;;;9.02;;
317;SDS011;146;53.448;10.228;2022-12-18T03:33:46;11.63;;;10.00;;
317;SDS011;146;53.448;10.228;2022-12-18T03:36:17;12.65;;;10.45;;
317;SDS011;146;53.448;10.228;2022-12-18T03:38:44;14.13;;;10.43;;
317;SDS011;146;53.448;10.228;2022-12-18T03:41:13;12.48;;;11.13;;
317;SDS011;146;53.448;10.228;2022-12-18T03:43:47;12.98;;;10.60;;
317;SDS011;146;53.448;10.228;2022-12-18T03:46:21;15.73;;;10.13;;
317;SDS011;146;53.448;10.228;2022-12-18T03:48:56;13.13;;;11.50;;
317;SDS011;146;53.448;10.228;2022-12-18T03:51:28;11.93;;;10.45;;
317;SDS011;146;53.448;10.228;2022-12-18T03:54:04;13.15;;;11.60;;
317;SDS011;146;53.448;10.228;2022-12-18T03:56:35;12.73;;;11.13;;
317;SDS011;146;53.448;10.228;2022-12-18T03:59:04;12.93;;;11.68;;
317;SDS011;146;53.448;10.228;2022-12-18T04:01:33;13.82;;;12.13;;
317;SDS011;146;53.448;10.228;2022-12-18T04:04:05;15.38;;;13.23;;
317;SDS011;146;53.448;10.228;2022-12-18T04:06:34;13.60;;;11.90;;
317;SDS011;146;53.448;10.228;2022-12-18T04:09:06;16.08;;;12.95;;
317;SDS011;146;53.448;10.228;2022-12-18T04:11:41;13.43;;;12.05;;
317;SDS011;146;53.448;10.228;2022-12-18T04:14:14;14.10;;;12.70;;
317;SDS011;146;53.448;10.228;2022-12-18T04:16:43;16.20;;;13.32;;
317;SDS011;146;53.448;10.228;2022-12-18T04:19:16;15.43;;;12.02;;
317;SDS011;146;53.448;10.228;2022-12-18T04:21:43;15.80;;;13.32;;
317;SDS011;146;53.448;10.228;2022-12-18T04:24:13;14.80;;;12.73;;
317;SDS011;146;53.448;10.228;2022-12-18T04:26:43;15.52;;;13.00;;
317;SDS011;146;53.448;10.228;2022-12-18T04:29:14;13.93;;;12.45;;
317;SDS011;146;53.448;10.228;2022-12-18T04:31:41;13.68;;;12.32;;
317;SDS011;146;53.448;10.228;2022-12-18T04:34:19;17.80;;;12.40;;
317;SDS011;146;53.448;10.228;2022-12-18T04:36:54;14.13;;;12.65;;
317;SDS011;146;53.448;10.228;2022-12-18T04:39:21;15.48;;;13.88;;
317;SDS011;146;53.448;10.228;2022-12-18T04:41:55;15.10;;;12.27;;
317;SDS011;146;53.448;10.228;2022-12-18T04:44:29;17.30;;;12.85;;
317;SDS011;146;53.448;10.228;2022-12-18T04:46:57;16.13;;;13.77;;
317;SDS011;146;53.448;10.228;2022-12-18T04:49:25;15.10;;;12.77;;
317;SDS011;146;53.448;10.228;2022-12-18T04:51:52;17.48;;;14.43;;
317;SDS011;146;53.448;10.228;2022-12-18T04:54:19;15.18;;;13.27;;
317;SDS011;146;53.448;10.228;2022-12-18T04:56:53;18.70;;;13.43;;
317;SDS011;146;53.448;10.228;2022-12-18T04:59:22;13.77;;;12.20;;
317;SDS011;146;53.448;10.228;2022-12-18T05:01:49;15.23;;;12.88;;
317;SDS011;146;53.448;10.228;2022-12-18T05:04:19;15.07;;;12.82;;
317;SDS011;146;53.448;10.228;2022-12-18T05:06:46;17.52;;;13.93;;
317;SDS011;146;53.448;10.228;2022-12-18T05:09:20;14.43;;;12.90;;
317;SDS011;146;53.448;10.228;2022-12-18T05:11:57;15.50;;;13.90;;
317;SDS011;146;53.448;10.228;2022-12-18T05:14:24;19.98;;;14.65;;
317;SDS011;146;53.448;10.228;2022-12-18T05:16:54;15.25;;;13.68;;
317;SDS011;146;53.448;10.228;2022-12-18T05:19:26;20.70;;;14.35;;
317;SDS011;146;53.448;10.228;2022-12-18T05:21:55;18.40;;;14.10;;
317;SDS011;146;53.448;10.228;2022-12-18T05:24:22;20.55;;;15.88;;
317;SDS011;146;53.448;10.228;2022-12-18T05:26:49;16.65;;;13.73;;
317;SDS011;146;53.448;10.228;2022-12-18T05:29:16;19.38;;;15.50;;
317;SDS011;146;53.448;10.228;2022-12-18T05:31:43;17.67;;;15.52;;
317;SDS011;146;53.448;10.228;2022-12-18T05:34:10;20.42;;;16.10;;
317;SDS011;146;53.448;10.228;2022-12-18T05:36:39;16.13;;;14.43;;
317;SDS011;146;53.448;10.228;2022-12-18T05:39:09;19.08;;;14.02;;
317;SDS011;146;53.448;10.228;2022-12-18T05:41:38;17.55;;;14.50;;
317;SDS011;146;53.448;10.228;2022-12-18T05:44:11;16.88;;;13.82;;
317;SDS011;146;53.448;10.228;2022-12-18T05:46:37;17.27;;;15.13;;
317;SDS011;146;53.448;10.228;2022-12-18T05:49:04;19.35;;;15.10;;
317;SDS011;146;53.448;10.228;2022-12-18T05:51:35;18.52;;;14.68;;
317;SDS011;146;53.448;10.228;2022-12-18T05:54:11;20.80;;;15.00;;
317;SDS011;146;53.448;10.228;2022-12-18T05:56:43;17.77;;;14.80;;
317;SDS011;146;53.448;10.228;2022-12-18T05:59:24;18.02;;;14.70;;
317;SDS011;146;53.448;10.228;2022-12-18T06:02:14;18.83;;;15.20;;
317;SDS011;146;53.448;10.228;2022-12-18T06:04:51;19.08;;;14.30;;
317;SDS011;146;53.448;10.228;2022-12-18T06:07:28;20.60;;;16.33;;
317;SDS011;146;53.448;10.228;2022-12-18T06:10:16;17.67;;;14.93;;
317;SDS011;146;53.448;10.228;2022-12-18T06:13:03;20.02;;;16.85;;
317;SDS011;146;53.448;10.228;2022-12-18T06:15:59;21.30;;;15.25;;
317;SDS011;146;53.448;10.228;2022-12-18T06:18:31;17.60;;;14.70;;
317;SDS011;146;53.448;10.228;2022-12-18T06:21:04;20.33;;;15.55;;
317;SDS011;146;53.448;10.228;2022-12-18T06:23:31;19.45;;;15.10;;
317;SDS011;146;53.448;10.228;2022-12-18T06:26:02;18.75;;;14.80;;
317;SDS011;146;53.448;10.228;2022-12-18T06:28:30;18.65;;;16.23;;
317;SDS011;146;53.448;10.228;2022-12-18T06:37:28;18.17;;;14.70;;
317;SDS011;146;53.448;10.228;2022-12-18T06:39:57;15.82;;;14.13;;
317;SDS011;146;53.448;10.228;2022-12-18T06:42:34;16.38;;;14.25;;
317;SDS011;146;53.448;10.228;2022-12-18T06:45:08;20.90;;;18.15;;
317;SDS011;146;53.448;10.228;2022-12-18T06:47:36;17.55;;;14.40;;
317;SDS011;146;53.448;10.228;2022-12-18T06:50:03;20.85;;;16.02;;
317;SDS011;146;53.448;10.228;2022-12-18T06:56:33;16.02;;;14.30;;
317;SDS011;146;53.448;10.228;2022-12-18T06:59:01;19.35;;;15.60;;
317;SDS011;146;53.448;10.228;2022-12-18T07:01:29;18.73;;;15.80;;
317;SDS011;146;53.448;10.228;2022-12-18T07:03:56;18.10;;;15.82;;
317;SDS011;146;53.448;10.228;2022-12-18T07:06:25;18.13;;;15.95;;
317;SDS011;146;53.448;10.228;2022-12-18T07:08:52;17.85;;;14.85;;
317;SDS011;146;53.448;10.228;2022-12-18T07:11:20;19.90;;;15.35;;
317;SDS011;146;53.448;10.228;2022-12-18T07:13:47;20.83;;;16.65;;
317;SDS011;146;53.448;10.228;2022-12-18T07:16:15;19.15;;;15.52;;
317;SDS011;146;53.448;10.228;2022-12-18T07:18:43;21.08;;;15.35;;
317;SDS011;146;53.448;10.228;2022-12-18T07:21:11;21.02;;;15.65;;
317;SDS011;146;53.448;10.228;2022-12-18T07:23:39;21.15;;;16.65;;
317;SDS011;146;53.448;10.228;2022-12-18T07:26:07;19.02;;;15.90;;
317;SDS011;146;53.448;10.228;2022-12-18T07:28:35;18.13;;;15.38;;
317;SDS011;146;53.448;10.228;2022-12-18T07:31:02;22.05;;;16.75;;
317;SDS011;146;53.448;10.228;2022-12-18T07:33:32;18.67;;;15.48;;
317;SDS011;146;53.448;10.228;2022-12-18T07:35:59;20.98;;;15.43;;
317;SDS011;146;53.448;10.228;2022-12-18T07:38:26;26.02;;;17.30;;
317;SDS011;146;53.448;10.228;2022-12-18T07:40:53;25.90;;;19.00;;
317;SDS011;146;53.448;10.228;2022-12-18T07:43:20;24.35;;;18.73;;
317;SDS011;146;53.448;10.228;2022-12-18T07:45:48;22.60;;;18.33;;
317;SDS011;146;53.448;10.228;2022-12-18T07:48:16;20.17;;;16.77;;
317;SDS011;146;53.448;10.228;2022-12-18T07:50:44;22.55;;;19.00;;
317;SDS011;146;53.448;10.228;2022-12-18T07:53:11;20.77;;;16.92;;
317;SDS011;146;53.448;10.228;2022-12-18T07:55:39;21.10;;;17.08;;
317;SDS011;146;53.448;10.228;2022-12-18T07:58:06;24.08;;;18.10;;
317;SDS011;146;53.448;10.228;2022-12-18T08:00:34;21.65;;;17.08;;
317;SDS011;146;53.448;10.228;2022-12-18T08:03:01;35.58;;;23.20;;
317;SDS011;146;53.448;10.228;2022-12-18T08:05:27;21.52;;;16.77;;
317;SDS011;146;53.448;10.228;2022-12-18T08:07:56;22.77;;;16.65;;
317;SDS011;146;53.448;10.228;2022-12-18T08:10:24;22.20;;;16.15;;
317;SDS011;146;53.448;10.228;2022-12-18T08:12:51;20.80;;;15.95;;
317;SDS011;146;53.448;10.228;2022-12-18T08:15:18;21.60;;;14.98;;
317;SDS011;146;53.448;10.228;2022-12-18T08:17:45;22.38;;;16.38;;
317;SDS011;146;53.448;10.228;2022-12-18T08:20:12;19.83;;;16.20;;
317;SDS011;146;53.448;10.228;2022-12-18T08:22:40;21.40;;;16.00;;
317;SDS011;146;53.448;10.228;2022-12-18T08:25:08;21.60;;;17.42;;
317;SDS011;146;53.448;10.228;2022-12-18T08:27:35;21.55;;;16.90;;
317;SDS011;146;53.448;10.228;2022-12-18T08:30:03;20.00;;;16.25;;
317;SDS011;146;53.448;10.228;2022-12-18T08:32:30;21.45;;;17.15;;
317;SDS011;146;53.448;10.228;2022-12-18T08:34:58;20.75;;;15.82;;
317;SDS011;146;53.448;10.228;2022-12-18T08:37:25;21.23;;;17.45;;
317;SDS011;146;53.448;10.228;2022-12-18T08:39:51;23.92;;;16.60;;
317;SDS011;146;53.448;10.228;2022-12-18T08:42:20;26.13;;;16.63;;
317;SDS011;146;53.448;10.228;2022-12-18T08:45:04;24.55;;;17.90;;
317;SDS011;146;53.448;10.228;2022-12-18T08:47:32;26.25;;;17.20;;
317;SDS011;146;53.448;10.228;2022-12-18T08:49:58;22.25;;;17.65;;
317;SDS011;146;53.448;10.228;2022-12-18T08:52:25;23.20;;;17.25;;
317;SDS011;146;53.448;10.228;2022-12-18T08:54:53;23.30;;;18.15;;
317;SDS011;146;53.448;10.228;2022-12-18T08:57:21;23.33;;;16.65;;
317;SDS011;146;53.448;10.228;2022-12-18T08:59:48;21.45;;;16.33;;
317;SDS011;146;53.448;10.228;2022-12-18T09:02:15;23.10;;;16.35;;
317;SDS011;146;53.448;10.228;2022-12-18T09:04:42;21.98;;;15.27;;
317;SDS011;146;53.448;10.228;2022-12-18T09:07:09;24.35;;;17.55;;
317;SDS011;146;53.448;10.228;2022-12-18T09:09:36;21.88;;;16.85;;
317;SDS011;146;53.448;10.228;2022-12-18T09:12:02;21.55;;;17.08;;
317;SDS011;146;53.448;10.228;2022-12-18T09:14:31;21.67;;;16.67;;
317;SDS011;146;53.448;10.228;2022-12-18T09:16:57;21.20;;;16.80;;
317;SDS011;146;53.448;10.228;2022-12-18T09:19:24;25.55;;;16.52;;
317;SDS011;146;53.448;10.228;2022-12-18T09:21:51;25.08;;;16.73;;
317;SDS011;146;53.448;10.228;2022-12-18T09:24:18;22.60;;;18.25;;
317;SDS011;146;53.448;10.228;2022-12-18T09:26:45;21.48;;;15.50;;
317;SDS011;146;53.448;10.228;2022-12-18T09:29:11;27.85;;;16.67;;
317;SDS011;146;53.448;10.228;2022-12-18T09:31:40;24.13;;;16.65;;
317;SDS011;146;53.448;10.228;2022-12-18T09:34:06;26.05;;;16.70;;
317;SDS011;146;53.448;10.228;2022-12-18T09:36:33;22.23;;;14.73;;
317;SDS011;146;53.448;10.228;2022-12-18T09:39:00;20.08;;;16.08;;
317;SDS011;146;53.448;10.228;2022-12-18T09:41:33;24.55;;;17.42;;
317;SDS011;146;53.448;10.228;2022-12-18T09:44:10;30.85;;;19.58;;
317;SDS011;146;53.448;10.228;2022-12-18T09:46:49;21.55;;;17.30;;
317;SDS011;146;53.448;10.228;2022-12-18T09:49:23;17.38;;;14.65;;
317;SDS011;146;53.448;10.228;2022-12-18T09:51:55;20.25;;;14.55;;
317;SDS011;146;53.448;10.228;2022-12-18T09:54:26;23.63;;;16.80;;
317;SDS011;146;53.448;10.228;2022-12-18T09:57:00;21.35;;;15.88;;
317;SDS011;146;53.448;10.228;2022-12-18T09:59:30;22.58;;;15.25;;
317;SDS011;146;53.448;10.228;2022-12-18T10:02:10;24.13;;;14.98;;
317;SDS011;146;53.448;10.228;2022-12-18T10:04:42;23.10;;;16.55;;
317;SDS011;146;53.448;10.228;2022-12-18T10:07:10;24.80;;;17.02;;
317;SDS011;146;53.448;10.228;2022-12-18T10:09:46;24.92;;;17.77;;
317;SDS011;146;53.448;10.228;2022-12-18T10:12:23;20.05;;;15.88;;
317;SDS011;146;53.448;10.228;2022-12-18T10:14:59;22.70;;;16.13;;
317;SDS011;146;53.448;10.228;2022-12-18T10:17:35;27.73;;;15.95;;
317;SDS011;146;53.448;10.228;2022-12-18T10:20:12;23.60;;;17.33;;
317;SDS011;146;53.448;10.228;2022-12-18T10:22:47;24.00;;;16.52;;
317;SDS011;146;53.448;10.228;2022-12-18T10:25:21;24.52;;;16.40;;
317;SDS011;146;53.448;10.228;2022-12-18T10:27:51;21.52;;;16.63;;
317;SDS011;146;53.448;10.228;2022-12-18T10:30:21;19.17;;;14.45;;
317;SDS011;146;53.448;10.228;2022-12-18T10:32:51;22.25;;;16.30;;
317;SDS011;146;53.448;10.228;2022-12-18T10:35:18;21.13;;;16.20;;
317;SDS011;146;53.448;10.228;2022-12-18T10:38:01;21.60;;;16.08;;
317;SDS011;146;53.448;10.228;2022-12-18T10:40:29;23.05;;;15.13;;
317;SDS011;146;53.448;10.228;2022-12-18T10:43:03;20.05;;;14.70;;
317;SDS011;146;53.448;10.228;2022-12-18T10:45:31;21.98;;;15.32;;
317;SDS011;146;53.448;10.228;2022-12-18T10:47:59;19.25;;;14.05;;
317;SDS011;146;53.448;10.228;2022-12-18T10:50:28;19.08;;;14.52;;
317;SDS011;146;53.448;10.228;2022-12-18T10:52:57;20.85;;;15.25;;
317;SDS011;146;53.448;10.228;2022-12-18T10:55:27;18.42;;;14.30;;
317;SDS011;146;53.448;10.228;2022-12-18T10:58:05;20.73;;;15.48;;
317;SDS011;146;53.448;10.228;2022-12-18T11:00:42;21.38;;;14.77;;
317;SDS011;146;53.448;10.228;2022-12-18T11:03:28;21.13;;;15.73;;
317;SDS011;146;53.448;10.228;2022-12-18T11:06:04;19.23;;;16.02;;
317;SDS011;146;53.448;10.228;2022-12-18T11:08:33;20.33;;;15.00;;
317;SDS011;146;53.448;10.228;2022-12-18T11:11:00;21.73;;;16.05;;
317;SDS011;146;53.448;10.228;2022-12-18T11:13:28;19.17;;;15.43;;
317;SDS011;146;53.448;10.228;2022-12-18T11:15:57;22.15;;;15.68;;
317;SDS011;146;53.448;10.228;2022-12-18T11:18:26;19.58;;;15.23;;
317;SDS011;146;53.448;10.228;2022-12-18T11:20:55;22.13;;;15.90;;
317;SDS011;146;53.448;10.228;2022-12-18T11:23:25;24.83;;;16.88;;
317;SDS011;146;53.448;10.228;2022-12-18T11:25:53;19.95;;;15.95;;
317;SDS011;146;53.448;10.228;2022-12-18T11:28:33;20.58;;;14.55;;
317;SDS011;146;53.448;10.228;2022-12-18T11:31:09;20.10;;;15.07;;
317;SDS011;146;53.448;10.228;2022-12-18T11:33:56;19.40;;;14.50;;
317;SDS011;146;53.448;10.228;2022-12-18T11:36:29;18.05;;;14.07;;
317;SDS011;146;53.448;10.228;2022-12-18T11:38:59;19.70;;;14.65;;
317;SDS011;146;53.448;10.228;2022-12-18T11:41:32;16.80;;;13.73;;
317;SDS011;146;53.448;10.228;2022-12-18T11:44:22;21.15;;;15.20;;
317;SDS011;146;53.448;10.228;2022-12-18T11:46:55;20.00;;;14.65;;
317;SDS011;146;53.448;10.228;2022-12-18T11:49:28;19.05;;;15.15;;
317;SDS011;146;53.448;10.228;2022-12-18T11:52:00;18.85;;;13.55;;
317;SDS011;146;53.448;10.228;2022-12-18T11:54:36;19.60;;;14.48;;
317;SDS011;146;53.448;10.228;2022-12-18T11:57:05;18.45;;;13.05;;
317;SDS011;146;53.448;10.228;2022-12-18T11:59:42;19.27;;;13.27;;
317;SDS011;146;53.448;10.228;2022-12-18T12:02:29;20.35;;;14.40;;
317;SDS011;146;53.448;10.228;2022-12-18T12:05:20;19.95;;;13.80;;
317;SDS011;146;53.448;10.228;2022-12-18T12:07:55;15.95;;;12.48;;
317;SDS011;146;53.448;10.228;2022-12-18T12:10:29;18.98;;;13.90;;
317;SDS011;146;53.448;10.228;2022-12-18T12:13:19;22.85;;;13.48;;
317;SDS011;146;53.448;10.228;2022-12-18T12:16:01;29.00;;;18.23;;
317;SDS011;146;53.448;10.228;2022-12-18T12:18:40;20.70;;;14.60;;
317;SDS011;146;53.448;10.228;2022-12-18T12:21:17;27.10;;;17.00;;
317;SDS011;146;53.448;10.228;2022-12-18T12:23:50;20.33;;;14.40;;
317;SDS011;146;53.448;10.228;2022-12-18T12:26:26;20.13;;;13.98;;
317;SDS011;146;53.448;10.228;2022-12-18T12:29:06;19.50;;;13.93;;
317;SDS011;146;53.448;10.228;2022-12-18T12:31:47;17.30;;;12.20;;
317;SDS011;146;53.448;10.228;2022-12-18T12:34:29;22.27;;;13.40;;
317;SDS011;146;53.448;10.228;2022-12-18T12:37:08;16.67;;;11.77;;
317;SDS011;146;53.448;10.228;2022-12-18T12:39:44;19.98;;;12.30;;
317;SDS011;146;53.448;10.228;2022-12-18T12:42:15;16.08;;;12.25;;
317;SDS011;146;53.448;10.228;2022-12-18T12:45:05;15.27;;;12.55;;
317;SDS011;146;53.448;10.228;2022-12-18T12:47:40;19.17;;;13.88;;
317;SDS011;146;53.448;10.228;2022-12-18T12:50:13;16.45;;;13.55;;
317;SDS011;146;53.448;10.228;2022-12-18T12:52:44;19.52;;;12.65;;
317;SDS011;146;53.448;10.228;2022-12-18T12:55:14;20.05;;;12.43;;
317;SDS011;146;53.448;10.228;2022-12-18T12:57:45;19.65;;;12.05;;
317;SDS011;146;53.448;10.228;2022-12-18T13:00:22;24.02;;;13.95;;
317;SDS011;146;53.448;10.228;2022-12-18T13:02:52;18.02;;;12.52;;
317;SDS011;146;53.448;10.228;2022-12-18T13:05:26;19.65;;;12.25;;
317;SDS011;146;53.448;10.228;2022-12-18T13:08:00;22.40;;;12.38;;
317;SDS011;146;53.448;10.228;2022-12-18T13:10:33;18.60;;;12.50;;
317;SDS011;146;53.448;10.228;2022-12-18T13:13:02;15.60;;;11.90;;
317;SDS011;146;53.448;10.228;2022-12-18T13:15:31;18.60;;;10.90;;
317;SDS011;146;53.448;10.228;2022-12-18T13:18:11;16.73;;;11.52;;
317;SDS011;146;53.448;10.228;2022-12-18T13:20:42;18.55;;;11.93;;
317;SDS011;146;53.448;10.228;2022-12-18T13:23:27;20.52;;;12.75;;
317;SDS011;146;53.448;10.228;2022-12-18T13:25:56;19.02;;;13.52;;
317;SDS011;146;53.448;10.228;2022-12-18T13:28:24;25.65;;;15.25;;
317;SDS011;146;53.448;10.228;2022-12-18T13:34:32;16.65;;;12.35;;
317;SDS011;146;53.448;10.228;2022-12-18T13:40:11;20.92;;;11.73;;
317;SDS011;146;53.448;10.228;2022-12-18T13:43:28;22.65;;;14.20;;
317;SDS011;146;53.448;10.228;2022-12-18T13:45:59;20.38;;;12.20;;
317;SDS011;146;53.448;10.228;2022-12-18T13:48:31;16.83;;;10.30;;
317;SDS011;146;53.448;10.228;2022-12-18T13:51:01;20.17;;;13.48;;
317;SDS011;146;53.448;10.228;2022-12-18T13:53:31;17.92;;;12.35;;
317;SDS011;146;53.448;10.228;2022-12-18T13:56:03;20.67;;;11.63;;
317;SDS011;146;53.448;10.228;2022-12-18T13:58:31;17.73;;;12.38;;
317;SDS011;146;53.448;10.228;2022-12-18T14:00:58;19.50;;;13.45;;
317;SDS011;146;53.448;10.228;2022-12-18T14:03:27;23.38;;;14.77;;
317;SDS011;146;53.448;10.228;2022-12-18T14:05:56;21.30;;;12.63;;
317;SDS011;146;53.448;10.228;2022-12-18T14:08:27;20.10;;;13.43;;
317;SDS011;146;53.448;10.228;2022-12-18T14:10:59;21.27;;;13.75;;
317;SDS011;146;53.448;10.228;2022-12-18T14:13:29;19.73;;;12.68;;
317;SDS011;146;53.448;10.228;2022-12-18T14:15:59;18.48;;;13.07;;
317;SDS011;146;53.448;10.228;2022-12-18T14:18:29;21.33;;;14.38;;
317;SDS011;146;53.448;10.228;2022-12-18T14:21:02;20.98;;;13.80;;
317;SDS011;146;53.448;10.228;2022-12-18T14:23:31;20.17;;;13.30;;
317;SDS011;146;53.448;10.228;2022-12-18T14:26:00;26.35;;;15.25;;
317;SDS011;146;53.448;10.228;2022-12-18T14:28:29;21.17;;;14.55;;
317;SDS011;146;53.448;10.228;2022-12-18T14:30:57;21.45;;;14.88;;
317;SDS011;146;53.448;10.228;2022-12-18T14:33:24;23.42;;;15.13;;
317;SDS011;146;53.448;10.228;2022-12-18T14:35:54;21.02;;;15.27;;
317;SDS011;146;53.448;10.228;2022-12-18T14:38:24;24.27;;;15.07;;
317;SDS011;146;53.448;10.228;2022-12-18T14:40:53;23.88;;;14.60;;
317;SDS011;146;53.448;10.228;2022-12-18T14:43:21;22.58;;;16.23;;
317;SDS011;146;53.448;10.228;2022-12-18T14:45:50;22.23;;;17.67;;
317;SDS011;146;53.448;10.228;2022-12-18T14:48:18;27.02;;;18.67;;
317;SDS011;146;53.448;10.228;2022-12-18T14:50:54;27.98;;;18.55;;
317;SDS011;146;53.448;10.228;2022-12-18T14:53:22;23.63;;;16.98;;
317;SDS011;146;53.448;10.228;2022-12-18T14:55:54;19.42;;;14.43;;
317;SDS011;146;53.448;10.228;2022-12-18T14:58:21;24.65;;;13.90;;
317;SDS011;146;53.448;10.228;2022-12-18T15:00:49;39.55;;;21.98;;
317;SDS011;146;53.448;10.228;2022-12-18T15:03:17;33.60;;;20.42;;
317;SDS011;146;53.448;10.228;2022-12-18T15:05:46;27.75;;;18.33;;
317;SDS011;146;53.448;10.228;2022-12-18T15:08:29;23.85;;;17.10;;
317;SDS011;146;53.448;10.228;2022-12-18T15:11:00;27.63;;;17.42;;
317;SDS011;146;53.448;10.228;2022-12-18T15:13:27;27.83;;;18.38;;
317;SDS011;146;53.448;10.228;2022-12-18T15:15:55;20.83;;;14.88;;
317;SDS011;146;53.448;10.228;2022-12-18T15:18:25;29.45;;;18.10;;
317;SDS011;146;53.448;10.228;2022-12-18T15:20:56;26.27;;;16.30;;
317;SDS011;146;53.448;10.228;2022-12-18T15:23:25;24.88;;;16.88;;
317;SDS011;146;53.448;10.228;2022-12-18T15:25:57;23.08;;;16.05;;
317;SDS011;146;53.448;10.228;2022-12-18T15:28:26;25.23;;;16.30;;
317;SDS011;146;53.448;10.228;2022-12-18T15:31:02;22.88;;;16.15;;
317;SDS011;146;53.448;10.228;2022-12-18T15:33:59;27.52;;;16.70;;
317;SDS011;146;53.448;10.228;2022-12-18T15:36:31;29.30;;;17.75;;
317;SDS011;146;53.448;10.228;2022-12-18T15:39:01;27.63;;;16.80;;
317;SDS011;146;53.448;10.228;2022-12-18T15:41:30;32.05;;;17.10;;
317;SDS011;146;53.448;10.228;2022-12-18T15:43:58;28.38;;;15.45;;